sensor_id;sensor_type;location;lat;lon;timestamp;pressure;altitude;pressure_sealevel;temperature;humidity
33697;BME280;20031;43.416;23.232;2023-04-22T00:00:03;99687.00;;;11.66;89.40
33697;BME280;20031;43.416;23.232;2023-04-22T00:02:28;99690.41;;;11.67;88.91
33697;BME280;20031;43.416;23.232;2023-04-22T00:04:54;99680.81;;;11.67;89.30
33697;BME280;20031;43.416;23.232;2023-04-22T00:07:21;99683.56;;;11.66;88.95
33697;BME280;20031;43.416;23.232;2023-04-22T00:09:47;99686.53;;;11.63;88.96
33697;BME280;20031;43.416;23.232;2023-04-22T00:12:12;99682.84;;;11.57;88.72
33697;BME280;20031;43.416;23.232;2023-04-22T00:14:38;99685.59;;;11.56;88.97
33697;BME280;20031;43.416;23.232;2023-04-22T00:17:03;99686.59;;;11.55;88.91
33697;BME280;20031;43.416;23.232;2023-04-22T00:19:28;99687.56;;;11.54;89.08
33697;BME280;20031;43.416;23.232;2023-04-22T00:21:55;99688.72;;;11.51;88.48
33697;BME280;20031;43.416;23.232;2023-04-22T00:24:20;99688.25;;;11.48;88.53
33697;BME280;20031;43.416;23.232;2023-04-22T00:26:45;99685.47;;;11.49;88.59
33697;BME280;20031;43.416;23.232;2023-04-22T00:29:11;99685.47;;;11.49;88.97
33697;BME280;20031;43.416;23.232;2023-04-22T00:31:36;99687.44;;;11.47;88.71
33697;BME280;20031;43.416;23.232;2023-04-22T00:34:02;99683.06;;;11.48;88.75
33697;BME280;20031;43.416;23.232;2023-04-22T00:36:27;99685.66;;;11.48;88.53
33697;BME280;20031;43.416;23.232;2023-04-22T00:38:53;99681.56;;;11.45;88.46
33697;BME280;20031;43.416;23.232;2023-04-22T00:41:18;99683.72;;;11.42;88.21
33697;BME280;20031;43.416;23.232;2023-04-22T00:43:44;99686.50;;;11.40;88.32
33697;BME280;20031;43.416;23.232;2023-04-22T00:46:10;99692.06;;;11.37;88.18
33697;BME280;20031;43.416;23.232;2023-04-22T00:48:36;99686.84;;;11.37;88.03
33697;BME280;20031;43.416;23.232;2023-04-22T00:51:02;99691.56;;;11.34;87.87
33697;BME280;20031;43.416;23.232;2023-04-22T00:53:28;99692.72;;;11.31;87.75
33697;BME280;20031;43.416;23.232;2023-04-22T00:55:53;99695.03;;;11.26;87.52
33697;BME280;20031;43.416;23.232;2023-04-22T00:58:20;99702.88;;;11.26;87.83
33697;BME280;20031;43.416;23.232;2023-04-22T01:00:46;99702.22;;;11.24;87.70
33697;BME280;20031;43.416;23.232;2023-04-22T01:03:12;99703.22;;;11.23;87.49
33697;BME280;20031;43.416;23.232;2023-04-22T01:05:39;99709.06;;;11.25;87.95
33697;BME280;20031;43.416;23.232;2023-04-22T01:08:05;99703.03;;;11.25;87.54
33697;BME280;20031;43.416;23.232;2023-04-22T01:10:31;99715.41;;;11.23;87.39
33697;BME280;20031;43.416;23.232;2023-04-22T01:12:56;99719.03;;;11.22;87.57
33697;BME280;20031;43.416;23.232;2023-04-22T01:15:22;99721.97;;;11.19;86.95
33697;BME280;20031;43.416;23.232;2023-04-22T01:17:47;99715.16;;;11.10;87.12
33697;BME280;20031;43.416;23.232;2023-04-22T01:20:13;99726.94;;;10.98;86.88
33697;BME280;20031;43.416;23.232;2023-04-22T01:22:41;99730.56;;;10.89;87.05
33697;BME280;20031;43.416;23.232;2023-04-22T01:25:09;99731.09;;;10.77;86.88
33697;BME280;20031;43.416;23.232;2023-04-22T01:27:36;99735.50;;;10.68;87.42
33697;BME280;20031;43.416;23.232;2023-04-22T01:30:03;99743.84;;;10.56;87.51
33697;BME280;20031;43.416;23.232;2023-04-22T01:32:29;99739.97;;;10.44;87.83
33697;BME280;20031;43.416;23.232;2023-04-22T01:34:55;99742.41;;;10.38;88.44
33697;BME280;20031;43.416;23.232;2023-04-22T01:37:21;99742.09;;;10.33;88.44
33697;BME280;20031;43.416;23.232;2023-04-22T01:39:47;99748.94;;;10.26;88.33
33697;BME280;20031;43.416;23.232;2023-04-22T01:42:13;99747.31;;;10.17;88.73
33697;BME280;20031;43.416;23.232;2023-04-22T01:44:39;99753.31;;;10.10;88.67
33697;BME280;20031;43.416;23.232;2023-04-22T01:47:05;99756.41;;;10.05;89.08
33697;BME280;20031;43.416;23.232;2023-04-22T01:49:30;99755.09;;;10.01;89.39
33697;BME280;20031;43.416;23.232;2023-04-22T01:51:57;99757.06;;;9.99;89.50
33697;BME280;20031;43.416;23.232;2023-04-22T01:54:22;99764.38;;;9.96;89.63
33697;BME280;20031;43.416;23.232;2023-04-22T01:56:52;99766.44;;;9.92;89.73
33697;BME280;20031;43.416;23.232;2023-04-22T01:59:22;99766.78;;;9.89;89.80
33697;BME280;20031;43.416;23.232;2023-04-22T02:01:47;99768.41;;;9.90;90.08
33697;BME280;20031;43.416;23.232;2023-04-22T02:04:12;99771.34;;;9.95;90.35
33697;BME280;20031;43.416;23.232;2023-04-22T02:06:38;99767.78;;;9.96;90.30
33697;BME280;20031;43.416;23.232;2023-04-22T02:09:04;99769.09;;;10.00;90.50
33697;BME280;20031;43.416;23.232;2023-04-22T02:11:29;99773.13;;;10.03;90.59
33697;BME280;20031;43.416;23.232;2023-04-22T02:13:55;99770.69;;;10.01;90.42
33697;BME280;20031;43.416;23.232;2023-04-22T02:16:20;99776.91;;;10.00;90.82
33697;BME280;20031;43.416;23.232;2023-04-22T02:18:46;99769.91;;;10.01;90.79
33697;BME280;20031;43.416;23.232;2023-04-22T02:21:11;99770.06;;;9.99;90.73
33697;BME280;20031;43.416;23.232;2023-04-22T02:23:37;99768.78;;;10.03;91.16
33697;BME280;20031;43.416;23.232;2023-04-22T02:26:04;99770.72;;;10.09;91.37
33697;BME280;20031;43.416;23.232;2023-04-22T02:28:30;99766.16;;;10.11;91.08
33697;BME280;20031;43.416;23.232;2023-04-22T02:30:55;99757.06;;;10.15;91.01
33697;BME280;20031;43.416;23.232;2023-04-22T02:33:20;99762.09;;;10.17;91.31
33697;BME280;20031;43.416;23.232;2023-04-22T02:35:46;99768.78;;;10.19;91.28
33697;BME280;20031;43.416;23.232;2023-04-22T02:38:11;99767.63;;;10.21;91.22
33697;BME280;20031;43.416;23.232;2023-04-22T02:40:37;99771.06;;;10.30;91.72
33697;BME280;20031;43.416;23.232;2023-04-22T02:43:03;99770.06;;;10.31;91.54
33697;BME280;20031;43.416;23.232;2023-04-22T02:45:28;99768.28;;;10.31;91.40
33697;BME280;20031;43.416;23.232;2023-04-22T02:47:54;99761.91;;;10.34;91.23
33697;BME280;20031;43.416;23.232;2023-04-22T02:50:20;99767.94;;;10.34;91.20
33697;BME280;20031;43.416;23.232;2023-04-22T02:52:45;99766.81;;;10.37;91.39
33697;BME280;20031;43.416;23.232;2023-04-22T02:55:10;99778.50;;;10.41;91.39
33697;BME280;20031;43.416;23.232;2023-04-22T02:57:36;99775.72;;;10.42;91.32
33697;BME280;20031;43.416;23.232;2023-04-22T03:00:02;99778.34;;;10.50;91.82
33697;BME280;20031;43.416;23.232;2023-04-22T03:02:28;99785.19;;;10.51;91.57
33697;BME280;20031;43.416;23.232;2023-04-22T03:04:54;99787.63;;;10.53;91.54
33697;BME280;20031;43.416;23.232;2023-04-22T03:07:19;99789.22;;;10.54;91.53
33697;BME280;20031;43.416;23.232;2023-04-22T03:09:45;99786.78;;;10.52;91.54
33697;BME280;20031;43.416;23.232;2023-04-22T03:12:10;99792.03;;;10.44;90.88
33697;BME280;20031;43.416;23.232;2023-04-22T03:14:36;99788.91;;;10.41;91.24
33697;BME280;20031;43.416;23.232;2023-04-22T03:17:01;99788.59;;;10.44;91.47
33697;BME280;20031;43.416;23.232;2023-04-22T03:19:26;99796.09;;;10.47;91.65
33697;BME280;20031;43.416;23.232;2023-04-22T03:21:52;99795.09;;;10.48;90.98
33697;BME280;20031;43.416;23.232;2023-04-22T03:24:17;99795.44;;;10.45;90.88
33697;BME280;20031;43.416;23.232;2023-04-22T03:26:43;99794.44;;;10.38;90.72
33697;BME280;20031;43.416;23.232;2023-04-22T03:29:09;99796.59;;;10.34;90.88
33697;BME280;20031;43.416;23.232;2023-04-22T03:31:34;99800.00;;;10.35;91.00
33697;BME280;20031;43.416;23.232;2023-04-22T03:34:00;99801.78;;;10.34;91.02
33697;BME280;20031;43.416;23.232;2023-04-22T03:36:26;99801.13;;;10.32;91.36
33697;BME280;20031;43.416;23.232;2023-04-22T03:38:52;99804.88;;;10.30;91.14
33697;BME280;20031;43.416;23.232;2023-04-22T03:41:17;99801.28;;;10.31;91.31
33697;BME280;20031;43.416;23.232;2023-04-22T03:43:43;99800.66;;;10.29;91.33
33697;BME280;20031;43.416;23.232;2023-04-22T03:46:08;99804.06;;;10.29;91.20
33697;BME280;20031;43.416;23.232;2023-04-22T03:48:34;99803.56;;;10.34;91.76
33697;BME280;20031;43.416;23.232;2023-04-22T03:51:00;99806.19;;;10.42;91.89
33697;BME280;20031;43.416;23.232;2023-04-22T03:53:26;99815.13;;;10.47;91.65
33697;BME280;20031;43.416;23.232;2023-04-22T03:55:52;99812.81;;;10.52;91.40
33697;BME280;20031;43.416;23.232;2023-04-22T03:58:18;99814.28;;;10.55;91.36
33697;BME280;20031;43.416;23.232;2023-04-22T04:00:43;99815.59;;;10.59;91.32
33697;BME280;20031;43.416;23.232;2023-04-22T04:03:08;99811.53;;;10.64;91.50
33697;BME280;20031;43.416;23.232;2023-04-22T04:05:35;99829.91;;;10.70;91.31
33697;BME280;20031;43.416;23.232;2023-04-22T04:08:00;99837.56;;;10.80;90.77
33697;BME280;20031;43.416;23.232;2023-04-22T04:10:26;99831.50;;;10.87;91.07
33697;BME280;20031;43.416;23.232;2023-04-22T04:12:51;99834.75;;;10.97;90.87
33697;BME280;20031;43.416;23.232;2023-04-22T04:15:17;99838.00;;;10.99;90.29
33697;BME280;20031;43.416;23.232;2023-04-22T04:17:48;99839.28;;;11.03;90.15
33697;BME280;20031;43.416;23.232;2023-04-22T04:20:14;99840.91;;;11.04;89.75
33697;BME280;20031;43.416;23.232;2023-04-22T04:22:40;99845.13;;;11.13;89.90
33697;BME280;20031;43.416;23.232;2023-04-22T04:25:07;99850.03;;;11.16;89.47
33697;BME280;20031;43.416;23.232;2023-04-22T04:27:32;99851.97;;;11.22;89.56
33697;BME280;20031;43.416;23.232;2023-04-22T04:29:59;99843.97;;;11.23;88.77
33697;BME280;20031;43.416;23.232;2023-04-22T04:32:24;99844.78;;;11.24;88.85
33697;BME280;20031;43.416;23.232;2023-04-22T04:34:50;99847.38;;;11.24;87.99
33697;BME280;20031;43.416;23.232;2023-04-22T04:37:16;99849.47;;;11.28;87.89
33697;BME280;20031;43.416;23.232;2023-04-22T04:39:42;99855.19;;;11.32;87.44
33697;BME280;20031;43.416;23.232;2023-04-22T04:42:08;99851.91;;;11.30;86.86
33697;BME280;20031;43.416;23.232;2023-04-22T04:44:34;99855.88;;;11.18;85.80
33697;BME280;20031;43.416;23.232;2023-04-22T04:47:00;99849.06;;;11.09;85.65
33697;BME280;20031;43.416;23.232;2023-04-22T04:49:25;99859.97;;;11.13;85.95
33697;BME280;20031;43.416;23.232;2023-04-22T04:51:51;99869.22;;;11.23;85.48
33697;BME280;20031;43.416;23.232;2023-04-22T04:54:16;99866.94;;;11.28;85.46
33697;BME280;20031;43.416;23.232;2023-04-22T04:56:42;99867.41;;;11.31;84.98
33697;BME280;20031;43.416;23.232;2023-04-22T04:59:08;99869.19;;;11.31;84.87
33697;BME280;20031;43.416;23.232;2023-04-22T05:01:33;99867.78;;;11.20;83.86
33697;BME280;20031;43.416;23.232;2023-04-22T05:03:59;99867.91;;;11.27;84.88
33697;BME280;20031;43.416;23.232;2023-04-22T05:06:24;99861.34;;;11.55;85.15
33697;BME280;20031;43.416;23.232;2023-04-22T05:08:51;99870.88;;;11.70;84.43
33697;BME280;20031;43.416;23.232;2023-04-22T05:11:16;99866.75;;;11.75;83.92
33697;BME280;20031;43.416;23.232;2023-04-22T05:13:42;99873.66;;;11.69;83.46
33697;BME280;20031;43.416;23.232;2023-04-22T05:16:07;99870.44;;;11.59;83.11
33697;BME280;20031;43.416;23.232;2023-04-22T05:18:33;99868.81;;;11.58;82.90
33697;BME280;20031;43.416;23.232;2023-04-22T05:20:58;99877.25;;;11.68;83.43
33697;BME280;20031;43.416;23.232;2023-04-22T05:23:25;99865.09;;;11.82;83.31
33697;BME280;20031;43.416;23.232;2023-04-22T05:25:50;99863.78;;;11.86;82.81
33697;BME280;20031;43.416;23.232;2023-04-22T05:28:16;99867.31;;;12.01;83.24
33697;BME280;20031;43.416;23.232;2023-04-22T05:30:41;99866.38;;;12.17;83.20
33697;BME280;20031;43.416;23.232;2023-04-22T05:33:07;99870.03;;;12.30;82.83
33697;BME280;20031;43.416;23.232;2023-04-22T05:35:33;99864.47;;;12.33;82.60
33697;BME280;20031;43.416;23.232;2023-04-22T05:37:59;99869.47;;;12.42;82.51
33697;BME280;20031;43.416;23.232;2023-04-22T05:40:24;99872.00;;;12.50;81.95
33697;BME280;20031;43.416;23.232;2023-04-22T05:42:50;99874.00;;;12.48;81.07
33697;BME280;20031;43.416;23.232;2023-04-22T05:45:15;99879.78;;;12.36;80.95
33697;BME280;20031;43.416;23.232;2023-04-22T05:47:41;99879.44;;;12.39;80.70
33697;BME280;20031;43.416;23.232;2023-04-22T05:50:07;99882.56;;;12.34;80.47
33697;BME280;20031;43.416;23.232;2023-04-22T05:52:33;99884.84;;;12.37;80.36
33697;BME280;20031;43.416;23.232;2023-04-22T05:54:58;99890.72;;;12.39;80.72
33697;BME280;20031;43.416;23.232;2023-04-22T05:57:24;99879.09;;;12.42;80.63
33697;BME280;20031;43.416;23.232;2023-04-22T05:59:50;99884.31;;;12.42;80.30
33697;BME280;20031;43.416;23.232;2023-04-22T06:02:15;99883.78;;;12.69;81.24
33697;BME280;20031;43.416;23.232;2023-04-22T06:04:41;99885.25;;;12.93;80.60
33697;BME280;20031;43.416;23.232;2023-04-22T06:07:07;99889.84;;;13.06;79.75
33697;BME280;20031;43.416;23.232;2023-04-22T06:09:32;99882.19;;;13.04;78.69
33697;BME280;20031;43.416;23.232;2023-04-22T06:11:58;99880.34;;;13.41;79.48
33697;BME280;20031;43.416;23.232;2023-04-22T06:14:23;99878.25;;;13.66;79.05
33697;BME280;20031;43.416;23.232;2023-04-22T06:16:48;99877.41;;;13.79;78.06
33697;BME280;20031;43.416;23.232;2023-04-22T06:19:18;99873.31;;;13.91;77.85
33697;BME280;20031;43.416;23.232;2023-04-22T06:21:44;99873.72;;;14.24;78.59
33697;BME280;20031;43.416;23.232;2023-04-22T06:24:09;99861.88;;;14.48;77.96
33697;BME280;20031;43.416;23.232;2023-04-22T06:26:38;99871.78;;;14.74;76.97
33697;BME280;20031;43.416;23.232;2023-04-22T06:29:03;99872.63;;;15.01;76.54
33697;BME280;20031;43.416;23.232;2023-04-22T06:31:32;99874.69;;;15.12;74.99
33697;BME280;20031;43.416;23.232;2023-04-22T06:33:58;99882.47;;;14.99;73.92
33697;BME280;20031;43.416;23.232;2023-04-22T06:36:24;99884.75;;;14.81;74.14
33697;BME280;20031;43.416;23.232;2023-04-22T06:38:50;99872.69;;;14.87;74.44
33697;BME280;20031;43.416;23.232;2023-04-22T06:41:16;99880.31;;;15.09;74.76
33697;BME280;20031;43.416;23.232;2023-04-22T06:43:41;99876.31;;;15.34;73.66
33697;BME280;20031;43.416;23.232;2023-04-22T06:46:07;99873.97;;;15.52;73.20
33697;BME280;20031;43.416;23.232;2023-04-22T06:48:32;99878.69;;;15.69;72.55
33697;BME280;20031;43.416;23.232;2023-04-22T06:50:58;99881.44;;;15.95;72.04
33697;BME280;20031;43.416;23.232;2023-04-22T06:53:23;99879.09;;;16.19;71.61
33697;BME280;20031;43.416;23.232;2023-04-22T06:55:49;99882.00;;;16.37;70.75
33697;BME280;20031;43.416;23.232;2023-04-22T06:58:14;99880.19;;;16.57;70.38
33697;BME280;20031;43.416;23.232;2023-04-22T07:00:39;99886.31;;;16.70;69.58
33697;BME280;20031;43.416;23.232;2023-04-22T07:03:05;99882.03;;;16.63;69.57
33697;BME280;20031;43.416;23.232;2023-04-22T07:05:30;99878.38;;;16.64;69.71
33697;BME280;20031;43.416;23.232;2023-04-22T07:07:56;99884.66;;;16.63;69.89
33697;BME280;20031;43.416;23.232;2023-04-22T07:10:21;99886.06;;;16.52;70.06
33697;BME280;20031;43.416;23.232;2023-04-22T07:12:47;99884.44;;;16.45;70.16
33697;BME280;20031;43.416;23.232;2023-04-22T07:15:12;99888.91;;;16.44;70.94
33697;BME280;20031;43.416;23.232;2023-04-22T07:17:38;99894.34;;;16.36;70.44
33697;BME280;20031;43.416;23.232;2023-04-22T07:20:04;99896.53;;;16.27;70.96
33697;BME280;20031;43.416;23.232;2023-04-22T07:22:30;99894.47;;;16.22;71.18
33697;BME280;20031;43.416;23.232;2023-04-22T07:24:55;99899.09;;;16.14;71.51
33697;BME280;20031;43.416;23.232;2023-04-22T07:27:20;99894.81;;;16.06;71.56
33697;BME280;20031;43.416;23.232;2023-04-22T07:29:46;99897.22;;;16.01;71.99
33697;BME280;20031;43.416;23.232;2023-04-22T07:32:11;99905.09;;;16.01;72.57
33697;BME280;20031;43.416;23.232;2023-04-22T07:34:37;99896.44;;;16.07;72.53
33697;BME280;20031;43.416;23.232;2023-04-22T07:37:02;99896.38;;;16.35;72.69
33697;BME280;20031;43.416;23.232;2023-04-22T07:39:29;99905.66;;;16.50;71.03
33697;BME280;20031;43.416;23.232;2023-04-22T07:41:54;99901.47;;;16.75;70.88
33697;BME280;20031;43.416;23.232;2023-04-22T07:44:21;99907.16;;;17.04;69.48
33697;BME280;20031;43.416;23.232;2023-04-22T07:46:47;99906.75;;;17.20;68.18
33697;BME280;20031;43.416;23.232;2023-04-22T07:49:13;99907.38;;;17.22;67.21
33697;BME280;20031;43.416;23.232;2023-04-22T07:51:39;99906.53;;;17.28;66.45
33697;BME280;20031;43.416;23.232;2023-04-22T07:54:05;99907.16;;;17.23;65.33
33697;BME280;20031;43.416;23.232;2023-04-22T07:56:31;99904.13;;;17.26;65.38
33697;BME280;20031;43.416;23.232;2023-04-22T07:58:56;99915.69;;;17.25;65.83
33697;BME280;20031;43.416;23.232;2023-04-22T08:01:21;99915.06;;;17.17;65.86
33697;BME280;20031;43.416;23.232;2023-04-22T08:03:47;99923.16;;;17.15;64.98
33697;BME280;20031;43.416;23.232;2023-04-22T08:06:12;99914.06;;;17.24;64.17
33697;BME280;20031;43.416;23.232;2023-04-22T08:08:38;99922.75;;;17.44;63.79
33697;BME280;20031;43.416;23.232;2023-04-22T08:11:03;99911.97;;;17.58;63.79
33697;BME280;20031;43.416;23.232;2023-04-22T08:13:29;99917.63;;;17.68;63.14
33697;BME280;20031;43.416;23.232;2023-04-22T08:15:54;99917.56;;;17.81;62.60
33697;BME280;20031;43.416;23.232;2023-04-22T08:18:20;99916.53;;;17.88;62.89
33697;BME280;20031;43.416;23.232;2023-04-22T08:20:46;99914.47;;;17.97;62.71
33697;BME280;20031;43.416;23.232;2023-04-22T08:23:12;99920.50;;;18.10;63.13
33697;BME280;20031;43.416;23.232;2023-04-22T08:25:37;99917.88;;;18.17;62.81
33697;BME280;20031;43.416;23.232;2023-04-22T08:28:03;99921.53;;;18.16;61.24
33697;BME280;20031;43.416;23.232;2023-04-22T08:30:28;99914.94;;;18.31;61.60
33697;BME280;20031;43.416;23.232;2023-04-22T08:32:54;99922.63;;;18.39;60.92
33697;BME280;20031;43.416;23.232;2023-04-22T08:35:19;99915.22;;;18.54;60.69
33697;BME280;20031;43.416;23.232;2023-04-22T08:37:45;99914.31;;;18.73;60.20
33697;BME280;20031;43.416;23.232;2023-04-22T08:40:11;99913.88;;;18.76;58.82
33697;BME280;20031;43.416;23.232;2023-04-22T08:42:36;99907.31;;;18.85;58.81
33697;BME280;20031;43.416;23.232;2023-04-22T08:45:03;99910.88;;;18.96;58.45
33697;BME280;20031;43.416;23.232;2023-04-22T08:47:30;99908.44;;;18.95;57.48
33697;BME280;20031;43.416;23.232;2023-04-22T08:49:58;99916.44;;;18.82;55.57
33697;BME280;20031;43.416;23.232;2023-04-22T08:52:25;99908.88;;;18.92;55.61
33697;BME280;20031;43.416;23.232;2023-04-22T08:54:51;99913.22;;;19.35;54.04
33697;BME280;20031;43.416;23.232;2023-04-22T08:57:17;99910.28;;;19.61;54.60
33697;BME280;20031;43.416;23.232;2023-04-22T08:59:43;99903.63;;;19.76;54.01
33697;BME280;20031;43.416;23.232;2023-04-22T09:02:16;99905.47;;;19.94;54.37
33697;BME280;20031;43.416;23.232;2023-04-22T09:04:42;99898.69;;;20.15;52.48
33697;BME280;20031;43.416;23.232;2023-04-22T09:07:09;99895.81;;;20.46;51.70
33697;BME280;20031;43.416;23.232;2023-04-22T09:09:36;99897.09;;;20.73;50.88
33697;BME280;20031;43.416;23.232;2023-04-22T09:12:02;99897.13;;;20.96;51.92
33697;BME280;20031;43.416;23.232;2023-04-22T09:14:27;99890.56;;;20.87;50.29
33697;BME280;20031;43.416;23.232;2023-04-22T09:16:56;99892.97;;;20.77;51.47
33697;BME280;20031;43.416;23.232;2023-04-22T09:19:23;99900.81;;;20.54;52.52
33697;BME280;20031;43.416;23.232;2023-04-22T09:21:49;99898.78;;;20.38;53.58
33697;BME280;20031;43.416;23.232;2023-04-22T09:24:15;99892.53;;;20.21;53.86
33697;BME280;20031;43.416;23.232;2023-04-22T09:26:41;99899.44;;;19.87;52.74
33697;BME280;20031;43.416;23.232;2023-04-22T09:29:12;99902.59;;;19.59;52.59
33697;BME280;20031;43.416;23.232;2023-04-22T09:31:38;99903.41;;;19.78;54.23
33697;BME280;20031;43.416;23.232;2023-04-22T09:34:05;99905.59;;;19.81;53.68
33697;BME280;20031;43.416;23.232;2023-04-22T09:36:31;99908.13;;;19.94;52.73
33697;BME280;20031;43.416;23.232;2023-04-22T09:39:06;99910.91;;;20.46;51.77
33697;BME280;20031;43.416;23.232;2023-04-22T09:41:39;99901.16;;;20.87;50.10
33697;BME280;20031;43.416;23.232;2023-04-22T09:44:10;99903.13;;;21.02;47.76
33697;BME280;20031;43.416;23.232;2023-04-22T09:46:41;99902.44;;;21.18;47.90
33697;BME280;20031;43.416;23.232;2023-04-22T09:49:07;99907.06;;;21.34;47.84
33697;BME280;20031;43.416;23.232;2023-04-22T09:51:32;99896.34;;;21.29;45.88
33697;BME280;20031;43.416;23.232;2023-04-22T09:54:06;99896.22;;;21.13;45.91
33697;BME280;20031;43.416;23.232;2023-04-22T09:59:06;99877.19;;;21.39;48.81
33697;BME280;20031;43.416;23.232;2023-04-22T10:01:37;99880.34;;;21.47;48.71
33697;BME280;20031;43.416;23.232;2023-04-22T10:04:08;99882.50;;;21.73;47.95
33697;BME280;20031;43.416;23.232;2023-04-22T10:06:34;99884.94;;;21.63;45.87
33697;BME280;20031;43.416;23.232;2023-04-22T10:09:00;99890.56;;;21.78;46.87
33697;BME280;20031;43.416;23.232;2023-04-22T10:11:27;99881.91;;;21.71;44.95
33697;BME280;20031;43.416;23.232;2023-04-22T10:13:52;99878.03;;;21.28;46.71
33697;BME280;20031;43.416;23.232;2023-04-22T10:16:20;99876.19;;;21.28;46.45
33697;BME280;20031;43.416;23.232;2023-04-22T10:18:47;99878.72;;;21.12;45.52
33697;BME280;20031;43.416;23.232;2023-04-22T10:21:13;99879.50;;;20.90;44.31
33697;BME280;20031;43.416;23.232;2023-04-22T10:23:44;99872.59;;;21.11;45.48
33697;BME280;20031;43.416;23.232;2023-04-22T10:26:11;99877.59;;;21.53;45.87
33697;BME280;20031;43.416;23.232;2023-04-22T10:28:42;99879.13;;;21.89;44.46
33697;BME280;20031;43.416;23.232;2023-04-22T10:31:20;99878.03;;;22.12;44.01
33697;BME280;20031;43.416;23.232;2023-04-22T10:33:46;99875.06;;;22.53;44.21
33697;BME280;20031;43.416;23.232;2023-04-22T10:36:17;99871.88;;;22.67;44.79
33697;BME280;20031;43.416;23.232;2023-04-22T10:41:24;99871.19;;;22.72;42.78
33697;BME280;20031;43.416;23.232;2023-04-22T10:43:58;99872.13;;;22.82;40.98
33697;BME280;20031;43.416;23.232;2023-04-22T10:49:17;99861.75;;;22.81;42.42
33697;BME280;20031;43.416;23.232;2023-04-22T10:51:48;99851.88;;;23.09;41.35
33697;BME280;20031;43.416;23.232;2023-04-22T10:57:12;99850.97;;;23.41;42.88
33697;BME280;20031;43.416;23.232;2023-04-22T10:59:44;99850.19;;;23.41;41.06
33697;BME280;20031;43.416;23.232;2023-04-22T11:02:12;99853.59;;;23.36;40.92
33697;BME280;20031;43.416;23.232;2023-04-22T11:15:16;99842.34;;;24.14;39.45
33697;BME280;20031;43.416;23.232;2023-04-22T11:17:44;99852.56;;;24.49;39.59
33697;BME280;20031;43.416;23.232;2023-04-22T11:20:11;99842.44;;;23.56;40.33
33697;BME280;20031;43.416;23.232;2023-04-22T11:22:40;99856.19;;;22.82;43.36
33697;BME280;20031;43.416;23.232;2023-04-22T11:25:06;99855.53;;;22.03;43.98
33697;BME280;20031;43.416;23.232;2023-04-22T11:27:34;99846.47;;;21.49;44.50
33697;BME280;20031;43.416;23.232;2023-04-22T11:30:01;99850.25;;;21.19;45.61
33697;BME280;20031;43.416;23.232;2023-04-22T11:32:27;99858.88;;;20.92;45.86
33697;BME280;20031;43.416;23.232;2023-04-22T11:34:53;99851.56;;;20.64;46.07
33697;BME280;20031;43.416;23.232;2023-04-22T11:37:19;99852.69;;;21.20;44.83
33697;BME280;20031;43.416;23.232;2023-04-22T11:39:45;99851.53;;;22.01;43.04
33697;BME280;20031;43.416;23.232;2023-04-22T11:42:13;99847.91;;;22.62;41.59
33697;BME280;20031;43.416;23.232;2023-04-22T11:44:39;99844.28;;;23.17;40.99
33697;BME280;20031;43.416;23.232;2023-04-22T11:47:04;99829.25;;;23.44;40.01
33697;BME280;20031;43.416;23.232;2023-04-22T11:49:30;99835.69;;;23.91;39.08
33697;BME280;20031;43.416;23.232;2023-04-22T11:51:58;99833.72;;;24.03;38.36
33697;BME280;20031;43.416;23.232;2023-04-22T11:54:35;99836.88;;;24.26;38.42
33697;BME280;20031;43.416;23.232;2023-04-22T11:57:06;99836.34;;;24.24;37.43
33697;BME280;20031;43.416;23.232;2023-04-22T11:59:33;99826.66;;;23.92;36.20
33697;BME280;20031;43.416;23.232;2023-04-22T12:01:58;99823.22;;;23.32;36.81
33697;BME280;20031;43.416;23.232;2023-04-22T12:04:24;99831.63;;;22.92;38.86
33697;BME280;20031;43.416;23.232;2023-04-22T12:06:52;99830.34;;;22.61;40.11
33697;BME280;20031;43.416;23.232;2023-04-22T12:09:18;99823.19;;;22.95;41.31
33697;BME280;20031;43.416;23.232;2023-04-22T12:11:44;99816.31;;;23.53;39.05
33697;BME280;20031;43.416;23.232;2023-04-22T12:14:10;99821.19;;;23.60;38.52
33697;BME280;20031;43.416;23.232;2023-04-22T12:16:39;99808.50;;;23.84;36.89
33697;BME280;20031;43.416;23.232;2023-04-22T12:19:05;99802.63;;;24.08;37.65
33697;BME280;20031;43.416;23.232;2023-04-22T12:21:31;99803.31;;;24.46;37.26
33697;BME280;20031;43.416;23.232;2023-04-22T12:24:01;99796.03;;;24.42;34.84
33697;BME280;20031;43.416;23.232;2023-04-22T12:26:30;99792.72;;;24.56;37.69
33697;BME280;20031;43.416;23.232;2023-04-22T12:28:57;99793.94;;;24.80;36.90
33697;BME280;20031;43.416;23.232;2023-04-22T12:31:23;99791.22;;;24.70;36.08
33697;BME280;20031;43.416;23.232;2023-04-22T12:33:49;99788.16;;;24.93;36.29
33697;BME280;20031;43.416;23.232;2023-04-22T12:36:16;99795.72;;;25.01;36.34
33697;BME280;20031;43.416;23.232;2023-04-22T12:38:41;99801.28;;;24.63;37.24
33697;BME280;20031;43.416;23.232;2023-04-22T12:41:07;99792.75;;;24.61;36.93
33697;BME280;20031;43.416;23.232;2023-04-22T12:43:33;99796.00;;;24.68;38.27
33697;BME280;20031;43.416;23.232;2023-04-22T12:46:06;99804.53;;;24.70;36.80
33697;BME280;20031;43.416;23.232;2023-04-22T12:48:32;99797.81;;;24.63;37.18
33697;BME280;20031;43.416;23.232;2023-04-22T12:50:58;99790.22;;;24.76;36.82
33697;BME280;20031;43.416;23.232;2023-04-22T12:53:25;99800.34;;;24.21;36.76
33697;BME280;20031;43.416;23.232;2023-04-22T12:55:51;99803.78;;;23.10;37.99
33697;BME280;20031;43.416;23.232;2023-04-22T12:58:16;99795.50;;;22.42;39.45
33697;BME280;20031;43.416;23.232;2023-04-22T13:00:42;99800.84;;;22.14;40.72
33697;BME280;20031;43.416;23.232;2023-04-22T13:03:07;99809.56;;;22.26;41.45
33697;BME280;20031;43.416;23.232;2023-04-22T13:05:33;99805.63;;;22.77;40.37